createdAt,value
2023-03-07T00:02:24.059Z,99740.38
2023-03-07T00:05:56.946Z,99742.48
2023-03-07T00:09:32.444Z,99742.01
2023-03-07T00:13:14.234Z,99742.16
2023-03-07T00:17:03.213Z,99736.55
2023-03-07T00:20:53.628Z,99731.27
2023-03-07T00:24:29.831Z,99734.53
2023-03-07T00:28:02.966Z,99735.66
2023-03-07T00:31:52.342Z,99730.71
2023-03-07T00:35:36.929Z,99721.38
2023-03-07T00:39:26.300Z,99714.35
2023-03-07T00:43:15.727Z,99710.36
2023-03-07T00:47:04.940Z,99705.95
2023-03-07T00:50:43.993Z,99698.77
2023-03-07T00:54:35.181Z,99694.15
2023-03-07T00:58:24.238Z,99687.60
2023-03-07T01:02:13.327Z,99685.55
2023-03-07T01:06:01.296Z,99677.27
2023-03-07T01:09:50.488Z,99669.66
2023-03-07T01:13:39.253Z,99668.50
2023-03-07T01:17:30.962Z,99662.92
2023-03-07T01:21:06.086Z,99661.58
2023-03-07T01:24:55.778Z,99659.11
2023-03-07T01:28:44.631Z,99655.05
2023-03-07T01:32:28.545Z,99646.84
2023-03-07T01:36:18.656Z,99644.54
2023-03-07T01:40:07.817Z,99642.27
2023-03-07T01:44:02.277Z,99632.44
2023-03-07T01:47:51.201Z,99630.23
2023-03-07T01:51:40.161Z,99628.70
2023-03-07T01:55:28.998Z,99625.37
2023-03-07T01:59:10.872Z,99623.66
2023-03-07T02:02:59.711Z,99620.02
2023-03-07T02:06:34.940Z,99614.73
2023-03-07T02:10:23.925Z,99617.73
2023-03-07T02:14:06.789Z,99610.48
2023-03-07T02:17:56.591Z,99600.05
2023-03-07T02:22:05.748Z,99596.88
2023-03-07T02:25:57.266Z,99594.16
2023-03-07T02:29:36.250Z,99589.78
2023-03-07T02:33:19.378Z,99580.98
2023-03-07T02:37:14.628Z,99576.06
2023-03-07T02:41:03.364Z,99563.79
2023-03-07T02:44:52.430Z,99554.66
2023-03-07T02:48:42.576Z,99548.02
2023-03-07T02:52:31.760Z,99549.21
2023-03-07T02:55:59.576Z,99541.27
2023-03-07T02:59:39.905Z,99535.32
2023-03-07T03:03:29.224Z,99533.21
2023-03-07T03:07:18.103Z,99526.16
2023-03-07T03:11:02.407Z,99518.13
2023-03-07T03:14:51.472Z,99514.97
2023-03-07T03:18:40.329Z,99508.16
2023-03-07T03:22:29.544Z,99509.10
2023-03-07T03:26:13.199Z,99500.96
2023-03-07T03:29:54.888Z,99492.12
2023-03-07T03:33:36.702Z,99490.99
2023-03-07T03:37:25.735Z,99488.75
2023-03-07T03:41:13.549Z,99484.29
2023-03-07T03:44:56.891Z,99485.80
2023-03-07T03:48:45.851Z,99482.76
2023-03-07T03:52:26.820Z,99477.58
2023-03-07T03:56:16.570Z,99473.46
2023-03-07T04:00:05.780Z,99460.78
2023-03-07T04:03:54.350Z,99453.33
2023-03-07T04:07:38.113Z,99447.47
2023-03-07T04:11:28.962Z,99445.91
2023-03-07T04:15:17.885Z,99440.13
2023-03-07T04:18:59.167Z,99436.52
2023-03-07T04:22:48.249Z,99432.92
2023-03-07T04:26:33.007Z,99426.97
2023-03-07T04:30:21.900Z,99422.52
2023-03-07T04:33:53.931Z,99421.94
2023-03-07T04:37:43.284Z,99421.61
2023-03-07T04:41:31.867Z,99414.20
2023-03-07T04:45:23.708Z,99410.30
2023-03-07T04:49:11.417Z,99400.52
2023-03-07T04:52:47.765Z,99400.09
2023-03-07T04:56:39.477Z,99393.38
2023-03-07T05:00:28.398Z,99383.92
2023-03-07T05:03:59.650Z,99378.18
2023-03-07T05:07:48.498Z,99372.92
2023-03-07T05:11:37.561Z,99366.06
2023-03-07T05:15:26.465Z,99354.25
2023-03-07T05:18:59.612Z,99354.41
2023-03-07T05:22:48.664Z,99357.94
2023-03-07T05:26:28.131Z,99351.11
2023-03-07T05:30:17.883Z,99344.53
2023-03-07T05:34:07.181Z,99343.16
2023-03-07T05:37:57.521Z,99338.85
2023-03-07T05:41:47.333Z,99337.29
2023-03-07T05:45:37.640Z,99331.13
2023-03-07T05:49:26.811Z,99323.09
2023-03-07T05:53:15.929Z,99315.84
2023-03-07T05:56:53.069Z,99313.17
2023-03-07T06:00:45.821Z,99302.95
2023-03-07T06:04:35.621Z,99299.16
2023-03-07T06:08:23.923Z,99292.58
2023-03-07T06:12:02.462Z,99283.75
2023-03-07T06:15:51.811Z,99280.39
2023-03-07T06:19:41.953Z,99280.48
2023-03-07T06:23:22.223Z,99271.52
2023-03-07T06:27:11.381Z,99263.53
2023-03-07T06:31:00.764Z,99265.77
2023-03-07T06:34:50.506Z,99260.97
2023-03-07T06:38:40.146Z,99260.66
2023-03-07T06:42:28.223Z,99258.67
2023-03-07T06:46:17.162Z,99248.76
2023-03-07T06:50:06.385Z,99239.79
2023-03-07T06:53:55.888Z,99238.39
2023-03-07T07:12:19.466Z,99210.27
2023-03-07T07:16:53.940Z,99199.15
2023-03-07T07:24:58.293Z,99192.17
2023-03-07T07:29:19.993Z,99190.05
2023-03-07T07:33:48.534Z,99178.80
2023-03-07T07:38:16.746Z,99184.77
2023-03-07T07:42:44.492Z,99178.89
2023-03-07T07:47:26.790Z,99174.94
2023-03-07T07:51:55.556Z,99170.06
2023-03-07T07:56:25.652Z,99168.42
2023-03-07T08:04:29.995Z,99155.10
2023-03-07T08:08:34.621Z,99147.22
2023-03-07T08:12:26.437Z,99136.43
2023-03-07T08:16:53.961Z,99132.09
2023-03-07T08:21:11.919Z,99117.96
2023-03-07T08:25:22.662Z,99112.59
2023-03-07T08:29:34.382Z,99105.40
2023-03-07T08:34:03.501Z,99100.70
2023-03-07T08:38:35.585Z,99095.69
2023-03-07T08:43:04.484Z,99093.25
2023-03-07T08:47:35.035Z,99096.33
2023-03-07T08:52:10.201Z,99092.54
2023-03-07T08:56:39.249Z,99087.38
2023-03-07T09:01:09.164Z,99082.80
2023-03-07T09:05:38.513Z,99078.59
2023-03-07T09:10:10.415Z,99080.13
2023-03-07T09:14:40.139Z,99085.38
2023-03-07T09:19:11.088Z,99082.33
2023-03-07T09:24:07.520Z,99080.52
2023-03-07T09:37:41.747Z,99096.16
2023-03-07T09:41:31.240Z,99091.52
2023-03-07T09:45:32.405Z,99093.86
2023-03-07T09:49:28.501Z,99098.81
2023-03-07T09:53:18.812Z,99093.97
2023-03-07T09:57:35.040Z,99094.77
2023-03-07T10:01:36.651Z,99090.77
2023-03-07T10:05:29.207Z,99097.14
2023-03-07T10:09:21.881Z,99104.45
2023-03-07T10:12:58.276Z,99095.23
2023-03-07T10:16:56.233Z,99096.52
2023-03-07T10:20:45.173Z,99088.16
2023-03-07T10:24:23.997Z,99085.88
2023-03-07T10:27:56.728Z,99076.64
2023-03-07T10:31:45.109Z,99065.30
2023-03-07T10:35:34.163Z,99063.19
2023-03-07T10:39:26.755Z,99065.92
2023-03-07T10:42:56.670Z,99051.88
2023-03-07T10:46:41.559Z,99048.77
2023-03-07T10:50:13.235Z,99043.94
2023-03-07T10:53:49.684Z,99041.38
2023-03-07T10:57:41.776Z,99041.36
2023-03-07T11:01:05.251Z,99032.17
2023-03-07T11:05:09.438Z,99027.27
2023-03-07T11:09:09.360Z,99018.21
2023-03-07T11:12:58.478Z,99015.27
2023-03-07T11:16:50.898Z,99010.98
2023-03-07T11:20:39.785Z,99006.96
2023-03-07T11:24:31.745Z,99000.40
2023-03-07T11:28:20.962Z,98996.69
2023-03-07T11:32:16.106Z,98990.85
2023-03-07T11:36:08.528Z,98980.58
2023-03-07T11:39:51.753Z,98981.89
2023-03-07T11:43:52.168Z,98976.48
2023-03-07T11:51:24.103Z,98970.02
2023-03-07T11:56:17.921Z,98966.20
2023-03-07T12:00:55.376Z,98958.13
2023-03-07T12:05:10.381Z,98957.31
2023-03-07T12:09:42.250Z,98955.52
2023-03-07T12:14:16.896Z,98946.91
2023-03-07T12:23:41.553Z,98932.08
2023-03-07T12:27:28.902Z,98929.71
2023-03-07T12:31:26.575Z,98922.17
2023-03-07T12:35:21.700Z,98918.15
2023-03-07T12:39:10.792Z,98908.09
2023-03-07T12:43:11.639Z,98908.10
2023-03-07T12:47:18.769Z,98914.42
2023-03-07T12:51:19.860Z,98906.35
2023-03-07T12:55:10.579Z,98907.13
2023-03-07T12:59:02.021Z,98902.14
2023-03-07T13:03:06.825Z,98903.41
2023-03-07T13:06:32.401Z,98905.27
2023-03-07T13:10:24.879Z,98905.10
2023-03-07T13:14:11.263Z,98902.91
2023-03-07T13:18:12.385Z,98899.55
2023-03-07T13:22:04.884Z,98898.55
2023-03-07T13:26:00.452Z,98899.77
2023-03-07T13:29:41.362Z,98892.00
2023-03-07T13:33:31.868Z,98894.78
2023-03-07T13:37:27.814Z,98894.38
2023-03-07T13:41:25.016Z,98889.34
2023-03-07T13:45:26.088Z,98884.04
2023-03-07T13:49:14.478Z,98882.83
2023-03-07T13:53:15.923Z,98877.86
2023-03-07T13:57:18.223Z,98868.61
2023-03-07T14:01:07.562Z,98858.97
2023-03-07T14:05:09.217Z,98860.63
2023-03-07T14:09:02.852Z,98850.80
2023-03-07T14:13:21.233Z,98850.80
2023-03-07T14:17:10.535Z,98843.77
2023-03-07T14:21:26.879Z,98836.46
2023-03-07T14:25:22.733Z,98829.94
2023-03-07T14:29:21.038Z,98832.77
2023-03-07T14:33:10.918Z,98828.32
2023-03-07T14:37:02.257Z,98820.36
2023-03-07T14:40:54.578Z,98813.61
2023-03-07T14:44:57.117Z,98808.55
2023-03-07T14:49:05.519Z,98802.28
2023-03-07T14:52:58.872Z,98803.55
2023-03-07T14:56:52.850Z,98791.79
2023-03-07T15:00:45.297Z,98785.19
2023-03-07T15:04:35.000Z,98779.52
2023-03-07T15:08:27.291Z,98772.95
2023-03-07T15:12:15.367Z,98765.23
2023-03-07T15:16:14.408Z,98756.70
2023-03-07T15:20:11.700Z,98748.95
2023-03-07T15:24:00.916Z,98748.94
2023-03-07T15:27:52.865Z,98736.98
2023-03-07T15:31:43.670Z,98737.65
2023-03-07T15:35:12.785Z,98736.43
2023-03-07T15:43:12.596Z,98725.66
2023-03-07T15:47:08.617Z,98727.27
2023-03-07T15:51:06.743Z,98721.29
2023-03-07T15:55:04.084Z,98714.10
2023-03-07T15:59:18.499Z,98713.94
2023-03-07T16:03:13.505Z,98702.15
2023-03-07T16:07:13.013Z,98705.92
2023-03-07T16:11:06.460Z,98702.95
2023-03-07T16:15:03.491Z,98700.65
2023-03-07T16:19:16.376Z,98699.23
2023-03-07T16:23:06.437Z,98697.21
2023-03-07T16:27:03.081Z,98706.63
2023-03-07T16:31:14.834Z,98709.66
2023-03-07T16:35:07.485Z,98712.64
2023-03-07T16:39:05.380Z,98708.46
2023-03-07T16:43:02.048Z,98709.17
2023-03-07T16:46:56.342Z,98720.36
2023-03-07T16:50:49.605Z,98726.49
2023-03-07T16:54:35.766Z,98731.73
2023-03-07T16:58:25.580Z,98760.16
2023-03-07T17:02:21.711Z,98813.58
2023-03-07T17:06:13.024Z,98822.20
2023-03-07T17:10:10.641Z,98839.42
2023-03-07T17:14:02.368Z,98843.20
2023-03-07T17:17:59.113Z,98858.91
2023-03-07T17:21:55.962Z,98862.85
2023-03-07T17:26:10.448Z,98878.17
2023-03-07T17:30:18.290Z,98881.50
2023-03-07T17:34:08.940Z,98885.45
2023-03-07T17:38:05.018Z,98891.41
2023-03-07T17:41:58.831Z,98904.06
2023-03-07T17:45:54.357Z,98904.55
2023-03-07T17:49:46.953Z,98909.69
2023-03-07T17:53:39.872Z,98901.77
2023-03-07T17:57:29.843Z,98912.68
2023-03-07T18:01:13.372Z,98915.91
2023-03-07T18:05:02.725Z,98919.98
2023-03-07T18:08:53.224Z,98918.85
2023-03-07T18:12:47.010Z,98911.64
2023-03-07T18:16:39.920Z,98903.95
2023-03-07T18:20:46.417Z,98917.19
2023-03-07T18:24:15.917Z,98918.19
2023-03-07T18:27:49.522Z,98932.88
2023-03-07T18:31:43.741Z,98933.23
2023-03-07T18:35:20.615Z,98936.37
2023-03-07T18:39:12.345Z,98925.34
2023-03-07T18:42:47.779Z,98918.39
2023-03-07T18:46:38.381Z,98916.23
2023-03-07T18:50:31.893Z,98931.98
2023-03-07T18:54:26.104Z,98953.33
2023-03-07T18:58:21.942Z,98968.92
2023-03-07T19:02:19.467Z,98965.25
2023-03-07T19:06:11.895Z,98966.69
2023-03-07T19:09:56.680Z,98971.21
2023-03-07T19:13:50.333Z,98967.27
2023-03-07T19:17:42.365Z,98969.52
2023-03-07T19:21:35.468Z,98973.78
2023-03-07T19:25:27.806Z,98977.93
2023-03-07T19:29:14.724Z,98977.42
2023-03-07T19:33:27.887Z,98983.96
2023-03-07T19:41:35.841Z,98985.90
2023-03-07T19:45:48.423Z,98980.77
2023-03-07T19:49:14.171Z,98988.31
2023-03-07T20:01:42.717Z,98976.48
2023-03-07T20:06:13.494Z,98986.38
2023-03-07T20:10:27.563Z,98984.67
2023-03-07T20:13:50.927Z,98989.89
2023-03-07T20:17:47.671Z,98989.53
2023-03-07T20:21:41.511Z,98987.84
2023-03-07T20:29:54.323Z,98998.22
2023-03-07T20:33:43.559Z,99001.06
2023-03-07T20:37:40.147Z,98999.48
2023-03-07T20:41:36.389Z,99001.73
2023-03-07T20:45:31.250Z,99009.59
2023-03-07T20:49:19.818Z,99017.43
2023-03-07T20:53:10.630Z,99014.88
2023-03-07T20:57:04.898Z,99015.80
2023-03-07T21:00:56.044Z,99024.34
2023-03-07T21:04:54.471Z,99020.46
2023-03-07T21:08:20.055Z,99032.21
2023-03-07T21:12:50.190Z,99037.92
2023-03-07T21:17:07.508Z,99046.92
2023-03-07T21:21:22.417Z,99055.30
2023-03-07T21:25:52.218Z,99058.48
2023-03-07T21:29:37.918Z,99049.30
2023-03-07T21:33:39.683Z,99067.04
2023-03-07T21:41:34.208Z,99070.34
2023-03-07T21:45:44.882Z,99072.65
2023-03-07T21:49:35.219Z,99064.20
2023-03-07T21:53:30.614Z,99077.34
2023-03-07T21:57:31.275Z,99074.59
2023-03-07T22:01:01.186Z,99070.40
2023-03-07T22:04:50.161Z,99075.63
2023-03-07T22:08:39.929Z,99078.17
2023-03-07T22:12:29.221Z,99079.20
2023-03-07T22:16:21.465Z,99078.11
2023-03-07T22:20:11.053Z,99072.85
2023-03-07T22:24:01.484Z,99083.34
2023-03-07T22:27:44.381Z,99091.04
2023-03-07T22:31:36.280Z,99092.37
2023-03-07T22:35:26.667Z,99087.05
2023-03-07T22:39:35.852Z,99092.89
2023-03-07T22:48:23.548Z,99096.30
2023-03-07T22:52:24.200Z,99101.39
2023-03-07T22:56:11.819Z,99104.29
2023-03-07T22:59:58.489Z,99102.62
2023-03-07T23:03:48.546Z,99103.47
2023-03-07T23:07:36.082Z,99110.17
2023-03-07T23:11:23.924Z,99106.38
2023-03-07T23:15:11.739Z,99105.42
2023-03-07T23:23:15.353Z,99120.14
2023-03-07T23:31:32.685Z,99123.29
2023-03-07T23:35:22.495Z,99119.33
2023-03-07T23:39:22.817Z,99113.75
2023-03-07T23:43:10.839Z,99115.25
2023-03-07T23:46:59.432Z,99119.69
2023-03-07T23:50:47.053Z,99131.25
2023-03-07T23:54:33.296Z,99142.09
